Time;durP1;ratioP1;P1;durP2;ratioP2;P2;SDS_P1;SDS_P2;PMS_P1;PMS_P2;Temp;Humidity;BMP_temperature;BMP_pressure;BME280_temperature;BME280_humidity;BME280_pressure;Samples;Min_cycle;Max_cycle;Signal;HPM_P1;HPM_P2
2022/08/16 00:02:33;;;;;;;9.65;6.25;;;;;;;24.83;55.24;99270.78;5135507;27;20047;-73
2022/08/16 00:05:02;;;;;;;9.77;6.40;;;;;;;24.80;55.30;99270.34;5133700;27;20086;-72
2022/08/16 00:07:33;;;;;;;8.30;5.90;;;;;;;24.78;55.39;99272.44;5135311;27;20051;-73
2022/08/16 00:10:06;;;;;;;7.82;5.57;;;;;;;24.70;55.52;99269.91;5134863;27;20134;-71
2022/08/16 00:12:47;;;;;;;10.05;6.07;;;;;;;24.66;55.90;99271.38;5135309;27;20047;-72
2022/08/16 00:15:21;;;;;;;10.32;5.90;;;;;;;24.64;55.83;99274.31;5134699;27;20039;-72
2022/08/16 00:17:49;;;;;;;10.73;5.88;;;;;;;24.60;56.69;99274.91;5125547;27;20043;-72
2022/08/16 00:20:25;;;;;;;13.25;6.10;;;;;;;24.46;57.50;99274.91;5114041;28;20114;-73
2022/08/16 00:22:54;;;;;;;10.43;5.80;;;;;;;24.35;57.64;99270.03;5114383;28;20046;-74
2022/08/16 00:25:24;;;;;;;9.90;5.80;;;;;;;24.27;58.17;99272.91;5114178;28;20067;-72
2022/08/16 00:28:13;;;;;;;11.90;6.22;;;;;;;24.23;58.50;99274.38;5112724;28;20062;-71
2022/08/16 00:30:42;;;;;;;8.90;5.82;;;;;;;24.23;58.51;99279.81;5147182;27;20112;-73
2022/08/16 00:33:11;;;;;;;8.10;5.97;;;;;;;24.18;59.98;99282.31;5114370;28;20385;-70
2022/08/16 00:35:40;;;;;;;9.55;6.15;;;;;;;24.37;58.28;99287.03;5147394;27;20438;-70
2022/08/16 00:38:09;;;;;;;9.82;5.93;;;;;;;24.34;58.66;99283.88;5113687;28;20040;-73
2022/08/16 00:41:00;;;;;;;8.32;6.15;;;;;;;24.13;59.81;99285.66;5147122;27;20089;-71
2022/08/16 00:43:35;;;;;;;8.75;5.97;;;;;;;24.10;60.23;99280.59;5114213;28;20156;-73
2022/08/16 00:46:14;;;;;;;11.20;6.32;;;;;;;23.98;60.49;99283.06;5112331;28;20408;-70
2022/08/16 00:49:02;;;;;;;12.40;6.00;;;;;;;23.86;61.33;99279.25;5114022;28;20059;-70
2022/08/16 00:51:31;;;;;;;11.02;6.43;;;;;;;23.74;61.88;99277.25;5113658;28;20104;-71
2022/08/16 00:54:02;;;;;;;8.52;6.07;;;;;;;23.64;62.81;99289.38;5114088;28;20052;-69
2022/08/16 00:56:33;;;;;;;10.13;6.40;;;;;;;23.58;63.99;99292.00;5113051;28;20063;-71
2022/08/16 00:59:26;;;;;;;8.70;5.90;;;;;;;23.52;64.14;99287.34;5111839;28;20044;-70
2022/08/16 01:01:54;;;;;;;8.70;6.07;;;;;;;23.50;63.74;99284.00;5113516;28;20396;-69
2022/08/16 01:04:26;;;;;;;10.70;6.85;;;;;;;23.51;63.82;99280.22;5113041;28;20047;-69
2022/08/16 01:06:58;;;;;;;8.30;6.10;;;;;;;23.55;63.57;99286.97;5113720;28;20078;-71
2022/08/16 01:09:31;;;;;;;9.07;6.38;;;;;;;23.55;64.28;99287.81;5113335;28;20105;-71
2022/08/16 01:12:03;;;;;;;9.30;6.30;;;;;;;23.53;64.19;99289.03;5113615;28;20040;-73
2022/08/16 01:14:40;;;;;;;9.15;6.28;;;;;;;23.49;65.44;99298.66;5113364;28;20499;-75
2022/08/16 01:17:13;;;;;;;11.35;6.03;;;;;;;23.44;64.91;99304.66;5113157;28;20039;-73
2022/08/16 01:19:46;;;;;;;9.73;6.25;;;;;;;23.51;64.47;99302.84;5113285;28;20496;-70
2022/08/16 01:22:22;;;;;;;9.80;6.13;;;;;;;23.59;63.74;99302.72;5113171;28;20058;-72
2022/08/16 01:25:18;;;;;;;11.13;6.20;;;;;;;23.58;62.56;99298.28;5112863;28;20476;-72
2022/08/16 01:27:52;;;;;;;11.32;6.32;;;;;;;23.41;65.36;99308.63;5113161;28;20577;-69
2022/08/16 01:30:27;;;;;;;11.75;6.43;;;;;;;23.33;66.08;99294.34;5113153;28;20039;-70
2022/08/16 01:33:03;;;;;;;11.18;6.32;;;;;;;23.24;66.78;99301.78;5113127;28;20055;-71
2022/08/16 01:35:46;;;;;;;10.57;6.45;;;;;;;23.09;66.90;99314.66;5112994;28;20047;-70
2022/08/16 01:38:23;;;;;;;11.70;6.60;;;;;;;23.06;67.47;99310.41;5112926;28;20048;-71
2022/08/16 01:40:59;;;;;;;14.15;6.57;;;;;;;23.17;66.73;99308.25;5112902;28;20442;-70
2022/08/16 01:43:30;;;;;;;9.65;6.38;;;;;;;23.12;67.49;99309.66;5112750;28;20043;-70
2022/08/16 01:46:00;;;;;;;10.63;7.00;;;;;;;23.11;67.68;99304.41;5112829;28;20372;-70
2022/08/16 01:48:49;;;;;;;11.05;7.20;;;;;;;23.03;68.22;99301.81;5112810;28;20036;-70
2022/08/16 01:51:21;;;;;;;10.93;6.85;;;;;;;23.13;67.84;99294.16;5112621;28;20043;-69
2022/08/16 01:53:49;;;;;;;9.60;6.57;;;;;;;23.11;68.12;99301.69;5112945;28;20139;-71
2022/08/16 01:56:25;;;;;;;11.23;6.75;;;;;;;23.01;68.78;99306.63;5112390;28;20043;-70
2022/08/16 01:58:55;;;;;;;10.13;6.55;;;;;;;22.94;68.78;99311.16;5112614;28;20126;-75
2022/08/16 02:01:25;;;;;;;11.23;6.93;;;;;;;22.86;69.68;99309.41;5112568;28;20369;-73
2022/08/16 02:03:56;;;;;;;11.10;7.03;;;;;;;22.86;70.75;99303.97;5112865;28;20093;-73
2022/08/16 02:06:32;;;;;;;11.40;6.85;;;;;;;22.85;70.06;99307.72;5112421;28;20047;-73
2022/08/16 02:09:08;;;;;;;10.57;6.88;;;;;;;22.81;69.71;99301.81;5116941;28;20040;-72
2022/08/16 02:11:45;;;;;;;9.77;6.63;;;;;;;22.79;70.29;99295.72;5117189;28;20044;-73
2022/08/16 02:14:22;;;;;;;10.15;7.05;;;;;;;22.81;69.57;99301.81;5116667;28;20071;-72
2022/08/16 02:16:55;;;;;;;10.60;7.05;;;;;;;22.89;69.22;99297.31;5149833;27;20074;-71
2022/08/16 02:19:26;;;;;;;9.20;6.38;;;;;;;22.97;69.03;99294.44;5116317;28;20050;-70
2022/08/16 02:22:18;;;;;;;11.63;6.78;;;;;;;23.08;67.46;99285.78;5116838;28;20067;-70
2022/08/16 02:25:08;;;;;;;11.25;6.80;;;;;;;22.82;68.98;99283.63;5149815;27;20503;-71
2022/08/16 02:27:41;;;;;;;11.18;7.10;;;;;;;22.63;71.41;99282.38;5116236;28;20043;-72
2022/08/16 02:30:14;;;;;;;14.23;7.03;;;;;;;22.60;71.32;99290.09;5149663;27;20044;-71
2022/08/16 02:33:03;;;;;;;12.90;7.10;;;;;;;22.79;69.80;99276.69;5116547;28;20039;-72
2022/08/16 02:35:33;;;;;;;10.00;7.45;;;;;;;22.75;69.68;99280.81;5114710;28;20070;-71
2022/08/16 02:38:21;;;;;;;10.55;6.82;;;;;;;22.54;71.50;99283.53;5116303;28;20046;-72
2022/08/16 02:40:51;;;;;;;10.57;7.10;;;;;;;22.52;71.74;99274.75;5116340;28;20445;-72
2022/08/16 02:43:23;;;;;;;10.02;6.70;;;;;;;22.34;72.95;99282.47;5116126;28;20062;-71
2022/08/16 02:45:54;;;;;;;11.00;7.43;;;;;;;22.20;73.93;99284.19;5116265;28;20482;-72
2022/08/16 02:48:24;;;;;;;10.80;7.20;;;;;;;22.14;74.51;99290.38;5115900;28;20541;-73
2022/08/16 02:51:02;;;;;;;10.98;6.95;;;;;;;22.13;76.23;99285.97;5116331;28;20131;-72
2022/08/16 02:53:41;;;;;;;10.00;6.93;;;;;;;22.14;76.07;99293.09;5116083;28;20051;-72
2022/08/16 02:56:11;;;;;;;11.80;7.27;;;;;;;22.23;74.77;99290.09;5116172;28;20442;-72
2022/08/16 02:58:44;;;;;;;11.32;6.80;;;;;;;22.35;73.17;99284.16;5116010;28;20396;-72
2022/08/16 03:01:13;;;;;;;13.10;7.32;;;;;;;22.33;73.23;99291.66;5115928;28;20040;-72
2022/08/16 03:04:01;;;;;;;13.27;7.00;;;;;;;22.36;72.58;99289.38;5115338;28;20109;-73
2022/08/16 03:06:50;;;;;;;9.75;6.85;;;;;;;22.34;72.51;99288.75;5114674;28;20421;-72
2022/08/16 03:09:24;;;;;;;11.63;7.10;;;;;;;22.39;72.57;99296.31;5113016;28;20456;-72
2022/08/16 03:11:59;;;;;;;13.68;6.95;;;;;;;22.50;71.12;99293.97;5114678;28;20035;-72
2022/08/16 03:14:31;;;;;;;8.57;6.50;;;;;;;22.32;71.92;99289.97;5114399;28;20067;-72
2022/08/16 03:17:00;;;;;;;10.27;6.80;;;;;;;22.42;71.34;99293.22;5114396;28;20078;-73
2022/08/16 03:19:31;;;;;;;10.88;6.60;;;;;;;22.32;72.17;99288.09;5113728;28;20036;-73
2022/08/16 03:22:21;;;;;;;10.32;7.03;;;;;;;22.32;72.00;99298.97;5114264;28;20146;-75
2022/08/16 03:24:58;;;;;;;9.00;6.88;;;;;;;22.34;72.06;99298.78;5114686;28;20059;-73
2022/08/16 03:27:29;;;;;;;11.30;7.28;;;;;;;22.17;73.36;99312.56;5114166;28;20460;-74
2022/08/16 03:30:09;;;;;;;11.63;7.22;;;;;;;22.09;74.34;99311.81;5114402;28;20130;-73
2022/08/16 03:32:44;;;;;;;10.68;7.07;;;;;;;22.05;75.04;99313.22;5114379;28;20047;-74
2022/08/16 03:35:15;;;;;;;10.88;7.32;;;;;;;21.95;75.45;99318.94;5114226;28;20159;-72
2022/08/16 03:37:46;;;;;;;10.40;7.38;;;;;;;21.80;76.80;99320.78;5114235;28;20131;-72
2022/08/16 03:40:33;;;;;;;11.75;7.32;;;;;;;21.75;77.15;99320.53;5113630;28;20127;-72
2022/08/16 03:43:04;;;;;;;12.32;7.32;;;;;;;21.90;75.88;99329.50;5114418;28;20385;-73
2022/08/16 03:45:51;;;;;;;11.10;7.57;;;;;;;21.72;77.20;99329.88;5113945;28;20120;-73
2022/08/16 03:48:22;;;;;;;13.05;7.20;;;;;;;21.79;77.13;99344.38;5112311;28;20071;-73
2022/08/16 03:51:11;;;;;;;13.82;7.97;;;;;;;21.87;75.76;99344.28;5114247;28;20472;-72
2022/08/16 03:53:40;;;;;;;11.40;6.93;;;;;;;21.88;75.96;99345.13;5113734;28;20419;-74
2022/08/16 03:56:09;;;;;;;12.82;7.10;;;;;;;21.73;77.74;99344.28;5112416;28;20047;-73
2022/08/16 03:58:49;;;;;;;13.80;7.53;;;;;;;21.86;76.21;99330.91;5113968;28;20437;-73
2022/08/16 04:01:19;;;;;;;13.63;7.40;;;;;;;21.94;75.45;99339.81;5113592;28;20039;-72
2022/08/16 04:03:49;;;;;;;13.40;7.90;;;;;;;21.90;75.25;99332.19;5069303;28;1252715;-71
2022/08/16 04:06:20;;;;;;;14.40;7.65;;;;;;;21.82;76.09;99349.44;5114379;28;20058;-75
2022/08/16 04:08:48;;;;;;;10.57;7.35;;;;;;;22.00;75.20;99340.91;5114545;28;20046;-71
2022/08/16 04:11:18;;;;;;;10.88;7.93;;;;;;;22.15;73.89;99341.78;5114528;28;20047;-71
2022/08/16 04:13:50;;;;;;;;;;;;;;;22.39;72.36;99339.78;5114960;28;20114;-71
2022/08/16 04:16:36;;;;;;;13.98;7.97;;;;;;;22.27;72.90;99340.25;5114435;28;20104;-71
2022/08/16 04:19:05;;;;;;;12.65;7.50;;;;;;;22.39;72.70;99334.34;5114408;28;20047;-72
2022/08/16 04:21:36;;;;;;;10.60;7.72;;;;;;;22.56;71.50;99328.50;5114152;28;20039;-72
2022/08/16 04:24:14;;;;;;;13.68;7.45;;;;;;;22.46;71.79;99340.72;5114216;28;20173;-74
2022/08/16 04:26:43;;;;;;;14.15;7.97;;;;;;;22.33;72.74;99346.81;5147305;27;20067;-74
2022/08/16 04:29:14;;;;;;;13.45;7.55;;;;;;;22.36;72.67;99348.31;5114049;28;20449;-73
2022/08/16 04:31:54;;;;;;;14.65;8.25;;;;;;;22.41;72.17;99354.88;5114005;28;20496;-72
2022/08/16 04:34:27;;;;;;;12.07;7.55;;;;;;;22.55;71.76;99355.88;5114104;28;20046;-72
2022/08/16 04:36:57;;;;;;;14.60;8.05;;;;;;;22.65;71.46;99361.84;5147258;27;20059;-72
2022/08/16 04:39:30;;;;;;;13.20;8.30;;;;;;;22.76;70.36;99360.50;5113905;28;20047;-72
2022/08/16 04:42:16;;;;;;;11.98;7.22;;;;;;;22.84;68.60;99347.66;5113920;28;20093;-71
2022/08/16 04:44:45;;;;;;;12.18;7.50;;;;;;;23.01;68.42;99350.13;5113718;28;20445;-70
2022/08/16 04:47:25;;;;;;;9.27;6.68;;;;;;;23.13;67.83;99354.84;5113866;28;20071;-77
2022/08/16 04:50:01;;;;;;;12.00;7.38;;;;;;;23.27;66.60;99347.66;5113658;28;20118;-72
2022/08/16 04:52:29;;;;;;;10.23;7.05;;;;;;;23.61;64.74;99346.06;5113467;28;20442;-72
2022/08/16 04:55:06;;;;;;;10.55;7.55;;;;;;;23.69;63.98;99351.38;5113632;28;20082;-71
2022/08/16 04:57:35;;;;;;;12.37;7.10;;;;;;;23.62;64.44;99350.47;5113215;28;20115;-73
2022/08/16 05:00:11;;;;;;;9.98;6.72;;;;;;;23.71;63.09;99346.56;5113626;28;20051;-71
2022/08/16 05:03:04;;;;;;;10.35;6.80;;;;;;;23.77;63.10;99351.22;5113399;28;20046;-71
2022/08/16 05:05:37;;;;;;;12.60;6.63;;;;;;;23.91;63.88;99342.09;5113135;28;20545;-73
2022/08/16 05:08:12;;;;;;;10.85;6.85;;;;;;;24.18;62.05;99343.09;5113593;28;20043;-72
2022/08/16 05:11:01;;;;;;;11.13;6.95;;;;;;;24.13;60.65;99339.31;5113545;28;20039;-72
2022/08/16 05:13:33;;;;;;;9.50;6.40;;;;;;;24.16;61.31;99349.78;5113081;28;20040;-72
2022/08/16 05:16:11;;;;;;;10.13;6.68;;;;;;;23.87;62.64;99361.78;5113265;28;20039;-72
2022/08/16 05:18:52;;;;;;;11.20;6.93;;;;;;;23.83;63.15;99358.59;5113369;28;20047;-72
2022/08/16 05:21:24;;;;;;;13.68;7.13;;;;;;;23.95;62.39;99351.56;5113343;28;20039;-72
2022/08/16 05:23:54;;;;;;;9.88;6.88;;;;;;;23.87;61.91;99367.22;5113392;28;20067;-72
2022/08/16 05:26:31;;;;;;;16.25;6.70;;;;;;;24.08;61.85;99369.84;5112830;28;20058;-73
2022/08/16 05:29:00;;;;;;;9.63;6.75;;;;;;;24.28;61.56;99364.50;5113215;28;20050;-74
2022/08/16 05:31:31;;;;;;;11.13;6.70;;;;;;;24.39;61.02;99372.13;5112942;28;20045;-74
2022/08/16 05:34:04;;;;;;;13.15;6.90;;;;;;;24.20;61.60;99372.84;5111910;28;20450;-77
2022/08/16 05:36:48;;;;;;;11.50;6.38;;;;;;;24.31;61.12;99372.31;5130701;27;20096;-81
2022/08/16 05:39:19;;;;;;;11.87;6.70;;;;;;;24.52;60.63;99371.38;5133558;27;20047;-79
2022/08/16 05:41:51;;;;;;;11.50;7.07;;;;;;;24.52;59.96;99377.66;5124869;27;20291;-78
2022/08/16 05:44:20;;;;;;;14.82;7.40;;;;;;;24.70;59.44;99371.63;5113485;28;20159;-82
2022/08/16 05:46:54;;;;;;;15.20;7.13;;;;;;;25.08;58.42;99368.41;5113003;28;20052;-83
2022/08/16 05:49:26;;;;;;;12.07;7.25;;;;;;;25.51;56.18;99366.16;5113333;28;20128;-81
2022/08/16 05:52:08;;;;;;;14.38;7.25;;;;;;;26.25;54.15;99357.66;5112985;28;20447;-81
2022/08/16 05:54:39;;;;;;;13.63;7.47;;;;;;;27.09;51.65;99372.25;5112672;28;20474;-80
2022/08/16 05:57:16;;;;;;;11.38;7.20;;;;;;;28.39;48.58;99362.25;5112947;28;20044;-79
2022/08/16 05:59:46;;;;;;;10.90;6.65;;;;;;;28.78;46.18;99368.31;5112800;28;20048;-81
2022/08/16 06:02:18;;;;;;;11.32;7.55;;;;;;;28.83;45.59;99365.69;5111712;28;20408;-80
2022/08/16 06:04:47;;;;;;;24.10;13.73;;;;;;;29.69;44.28;99369.91;5112235;28;20098;-77
2022/08/16 06:07:15;;;;;;;14.82;9.30;;;;;;;29.37;45.09;99366.63;5111504;28;20075;-77
2022/08/16 06:09:57;;;;;;;19.63;11.30;;;;;;;29.08;44.86;99360.09;5113152;28;20044;-81
2022/08/16 06:12:28;;;;;;;11.23;7.70;;;;;;;28.43;46.18;99366.22;5120729;28;20116;-84
2022/08/16 06:15:01;;;;;;;10.88;7.35;;;;;;;27.86;47.45;99365.53;5112860;28;20097;-80
2022/08/16 06:17:36;;;;;;;11.43;7.78;;;;;;;28.40;46.41;99363.94;5112407;28;20076;-80
2022/08/16 06:20:15;;;;;;;11.93;7.95;;;;;;;29.14;44.84;99369.28;5112732;28;20412;-79
2022/08/16 06:22:54;;;;;;;12.90;7.38;;;;;;;29.30;44.83;99371.38;5112325;28;20387;-84
2022/08/16 06:25:32;;;;;;;10.02;6.50;;;;;;;30.06;43.98;99370.53;5110948;28;20062;-84
2022/08/16 06:28:09;;;;;;;14.90;7.20;;;;;;;30.47;42.05;99366.75;5112648;28;20119;-83
2022/08/16 06:30:57;;;;;;;11.40;6.70;;;;;;;30.46;42.48;99373.34;5112166;28;20123;-78
2022/08/16 06:33:29;;;;;;;9.48;6.57;;;;;;;29.84;42.73;99374.97;5112055;28;20051;-83
2022/08/16 06:36:10;;;;;;;9.30;6.40;;;;;;;29.89;42.42;99369.56;5112490;28;20507;-81
2022/08/16 06:38:41;;;;;;;11.90;6.70;;;;;;;29.39;43.90;99385.59;5112222;28;20043;-78
2022/08/16 06:41:24;;;;;;;;;;;;;;;29.35;43.04;99374.28;5112658;28;20039;-78
2022/08/16 06:43:55;;;;;;;10.18;5.85;;;;;;;29.14;44.09;99372.03;5117995;28;20284;-74
2022/08/16 06:46:26;;;;;;;13.68;6.53;;;;;;;28.48;45.75;99374.59;5121530;27;20050;-75
2022/08/16 06:49:00;;;;;;;13.18;6.32;;;;;;;29.00;44.46;99364.00;5124126;27;20047;-76
2022/08/16 06:51:30;;;;;;;11.38;6.30;;;;;;;29.87;42.49;99366.22;5112461;28;20044;-74
2022/08/16 06:54:15;;;;;;;12.45;6.57;;;;;;;31.33;39.75;99364.06;5114735;28;20109;-75
2022/08/16 06:56:43;;;;;;;12.23;6.40;;;;;;;31.27;39.38;99357.66;5114929;28;20063;-75
2022/08/16 06:59:13;;;;;;;11.20;6.38;;;;;;;31.15;39.62;99362.34;5116410;28;20131;-75
2022/08/16 07:01:41;;;;;;;7.68;5.82;;;;;;;30.14;41.47;99361.94;5115721;28;20476;-74
2022/08/16 07:04:22;;;;;;;9.20;5.40;;;;;;;29.76;41.79;99367.06;5116685;27;20170;-74
2022/08/16 07:07:02;;;;;;;11.00;5.97;;;;;;;29.59;43.07;99367.75;5116024;28;20044;-75
2022/08/16 07:09:30;;;;;;;10.48;6.00;;;;;;;29.28;43.04;99370.78;5116034;28;20441;-74
2022/08/16 07:11:59;;;;;;;8.13;5.60;;;;;;;29.04;42.15;99362.47;5115637;28;20068;-74
2022/08/16 07:14:33;;;;;;;11.20;5.95;;;;;;;28.91;42.88;99361.81;5130825;27;20118;-74
2022/08/16 07:17:02;;;;;;;8.90;5.90;;;;;;;28.63;43.68;99370.63;5135836;27;20122;-74
2022/08/16 07:19:40;;;;;;;9.43;5.47;;;;;;;28.66;43.68;99370.13;5136092;27;20046;-74
2022/08/16 07:22:29;;;;;;;9.15;5.47;;;;;;;28.76;43.61;99382.28;5134915;27;20408;-74
2022/08/16 07:25:08;;;;;;;8.40;5.13;;;;;;;28.85;43.26;99379.19;5136085;27;20063;-74
2022/08/16 07:27:38;;;;;;;8.88;5.47;;;;;;;29.04;43.59;99378.94;5135945;27;20051;-73
2022/08/16 07:30:11;;;;;;;10.50;5.20;;;;;;;29.22;42.41;99367.06;5136015;27;20039;-82
2022/08/16 07:33:02;;;;;;;9.23;5.15;;;;;;;29.63;40.09;99376.38;5136434;27;20527;-87
2022/08/16 07:35:31;;;;;;;6.43;4.68;;;;;;;29.65;40.38;99374.22;5137489;27;20404;-81
2022/08/16 07:38:00;;;;;;;9.30;5.40;;;;;;;29.62;40.57;99386.50;5134387;27;20047;-79
2022/08/16 07:40:33;;;;;;;9.13;4.78;;;;;;;29.62;40.81;99383.75;5135727;27;20051;-79
2022/08/16 07:43:21;;;;;;;9.32;5.18;;;;;;;29.51;40.76;99392.81;5135748;27;20043;-77
2022/08/16 07:45:50;;;;;;;6.97;4.65;;;;;;;29.47;40.67;99388.03;5135367;27;20467;-73
2022/08/16 07:48:21;;;;;;;10.10;4.88;;;;;;;29.47;40.50;99393.50;5134194;27;20047;-73
2022/08/16 07:50:52;;;;;;;11.05;5.35;;;;;;;29.13;40.90;99397.81;5134393;27;20053;-73
2022/08/16 07:53:29;;;;;;;9.80;4.97;;;;;;;29.08;40.90;99402.13;5129739;27;20035;-75
2022/08/16 07:55:58;;;;;;;8.55;5.20;;;;;;;29.10;41.48;99392.81;5118168;27;20036;-74
2022/08/16 07:58:29;;;;;;;8.63;5.55;;;;;;;29.04;41.63;99392.66;5149662;27;20465;-74
2022/08/16 08:01:05;;;;;;;8.75;5.43;;;;;;;28.87;42.37;99385.28;5115329;28;20428;-74
2022/08/16 08:03:42;;;;;;;8.50;5.35;;;;;;;29.08;41.96;99390.31;5114484;28;20158;-74
2022/08/16 08:06:17;;;;;;;8.10;5.88;;;;;;;28.86;43.25;99389.94;5113707;28;20040;-75
2022/08/16 08:08:48;;;;;;;13.43;5.57;;;;;;;28.66;43.09;99392.09;5114778;28;20047;-74
2022/08/16 08:11:24;;;;;;;10.15;5.07;;;;;;;28.68;43.29;99385.31;5116368;27;20070;-74
2022/08/16 08:13:59;;;;;;;10.48;5.72;;;;;;;28.64;43.60;99389.59;5124667;27;20031;-78
2022/08/16 08:16:32;;;;;;;12.57;5.70;;;;;;;28.66;43.40;99384.72;5135438;27;20051;-74
2022/08/16 08:19:03;;;;;;;9.98;5.03;;;;;;;28.43;42.95;99390.91;5133548;27;20483;-77
2022/08/16 08:21:34;;;;;;;10.23;5.65;;;;;;;28.36;43.44;99392.88;5134620;27;20055;-76
2022/08/16 08:24:24;;;;;;;8.18;5.18;;;;;;;28.33;44.00;99396.06;5134641;27;20035;-74
2022/08/16 08:27:00;;;;;;;9.50;5.40;;;;;;;28.26;43.38;99395.28;5114609;28;20511;-74
2022/08/16 08:29:33;;;;;;;8.98;5.38;;;;;;;28.14;43.12;99394.34;5114254;28;20048;-75
2022/08/16 08:32:09;;;;;;;8.60;5.25;;;;;;;28.03;42.63;99401.44;5114009;28;20040;-74
2022/08/16 08:34:58;;;;;;;9.65;4.80;;;;;;;27.84;43.01;99406.03;5114080;28;20048;-75
2022/08/16 08:37:31;;;;;;;10.27;5.03;;;;;;;27.76;43.07;99402.72;5114651;27;20055;-75
2022/08/16 08:40:24;;;;;;;8.93;5.03;;;;;;;27.59;42.05;99402.41;5117472;27;20082;-74
2022/08/16 08:42:55;;;;;;;8.40;5.05;;;;;;;27.83;42.83;99404.34;5128330;27;20047;-71
2022/08/16 08:45:39;;;;;;;8.02;4.13;;;;;;;28.26;41.03;99398.00;5153344;27;20438;-71
2022/08/16 08:48:20;;;;;;;9.65;4.88;;;;;;;28.35;39.96;99407.66;5147412;27;20113;-71
2022/08/16 08:51:03;;;;;;;6.80;4.13;;;;;;;28.27;40.21;99399.69;5131892;27;20071;-71
2022/08/16 08:53:32;;;;;;;12.93;4.40;;;;;;;28.38;41.14;99401.72;5134712;27;20043;-74
2022/08/16 08:56:03;;;;;;;7.22;3.97;;;;;;;28.75;39.99;99404.44;5132767;27;20439;-74
2022/08/16 08:58:51;;;;;;;9.60;3.95;;;;;;;28.76;39.38;99390.50;5134451;27;20043;-76
2022/08/16 09:01:28;;;;;;;8.45;4.07;;;;;;;29.00;38.27;99399.69;5121360;27;20055;-72
2022/08/16 09:04:04;;;;;;;6.43;3.83;;;;;;;29.10;38.25;99390.06;5146776;27;20126;-73
2022/08/16 09:06:33;;;;;;;8.90;4.20;;;;;;;29.20;37.61;99390.34;5113542;28;20570;-73
2022/08/16 09:09:02;;;;;;;5.95;3.67;;;;;;;29.21;38.11;99395.59;5113628;28;20035;-73
2022/08/16 09:11:35;;;;;;;7.82;3.85;;;;;;;29.24;36.75;99384.16;5113272;28;20080;-73
2022/08/16 09:14:08;;;;;;;7.50;3.83;;;;;;;29.38;36.59;99387.53;5146965;27;20116;-72
2022/08/16 09:16:52;;;;;;;5.53;3.45;;;;;;;29.38;36.16;99382.03;5115256;27;20142;-74
2022/08/16 09:19:31;;;;;;;6.03;3.85;;;;;;;29.66;37.20;99386.06;5117647;27;20435;-77
2022/08/16 09:22:01;;;;;;;5.57;3.97;;;;;;;29.78;36.46;99381.41;5145970;27;20056;-74
2022/08/16 09:24:29;;;;;;;8.80;3.90;;;;;;;29.72;36.36;99385.91;5119354;27;20444;-74
2022/08/16 09:27:18;;;;;;;7.85;4.15;;;;;;;29.86;36.32;99379.13;5130269;27;20567;-74
2022/08/16 09:29:51;;;;;;;7.88;4.05;;;;;;;29.92;36.27;99388.34;5132896;27;20057;-74
2022/08/16 09:32:28;;;;;;;7.05;4.00;;;;;;;30.03;35.53;99368.25;5133738;27;20403;-75
2022/08/16 09:35:00;;;;;;;7.35;3.78;;;;;;;30.12;35.97;99368.75;5134098;27;20061;-74
2022/08/16 09:37:30;;;;;;;6.30;3.63;;;;;;;30.15;35.84;99365.53;5132274;27;20058;-73
2022/08/16 09:40:08;;;;;;;7.85;4.03;;;;;;;30.23;35.35;99365.16;5133858;27;20077;-74
2022/08/16 09:42:58;;;;;;;6.53;3.65;;;;;;;30.40;34.97;99368.84;5132158;27;20047;-73
2022/08/16 09:45:29;;;;;;;6.28;3.90;;;;;;;30.34;35.19;99371.72;5132412;27;20047;-74
2022/08/16 09:47:58;;;;;;;6.85;4.20;;;;;;;30.48;35.23;99362.94;5133655;27;20035;-74
2022/08/16 09:50:28;;;;;;;10.48;4.18;;;;;;;30.34;34.55;99374.47;5112323;27;20048;-74
2022/08/16 09:53:07;;;;;;;7.32;3.70;;;;;;;30.49;33.98;99374.78;5120111;27;20039;-72
2022/08/16 09:55:45;;;;;;;6.72;3.80;;;;;;;30.36;33.94;99380.56;5132242;27;20047;-73
2022/08/16 09:58:19;;;;;;;6.05;3.80;;;;;;;30.25;34.77;99367.66;5132501;28;20047;-73
2022/08/16 10:01:07;;;;;;;6.43;4.00;;;;;;;30.46;34.44;99369.75;5133299;28;20122;-73
2022/08/16 10:03:39;;;;;;;7.23;4.13;;;;;;;30.57;34.20;99368.06;5133413;28;20043;-72
2022/08/16 10:06:28;;;;;;;8.23;4.10;;;;;;;30.82;33.75;99362.28;5132113;27;20043;-74
2022/08/16 10:09:02;;;;;;;9.27;3.80;;;;;;;30.86;33.66;99361.53;5131261;27;20051;-73
2022/08/16 10:14:21;;;;;;;6.55;3.67;;;;;;;30.81;33.54;99353.19;5133630;27;20264;-73
2022/08/16 10:16:52;;;;;;;6.70;3.97;;;;;;;30.83;33.37;99358.44;5133773;28;20424;-74
2022/08/16 10:19:30;;;;;;;6.65;4.10;;;;;;;30.92;34.03;99351.47;5133358;27;20053;-73
2022/08/16 10:21:59;;;;;;;7.15;4.10;;;;;;;31.08;33.69;99350.66;5133359;27;20047;-74
2022/08/16 10:24:33;;;;;;;6.70;3.78;;;;;;;31.20;31.92;99351.47;5131766;27;20061;-75
2022/08/16 10:27:02;;;;;;;6.10;3.78;;;;;;;31.11;31.44;99355.66;5132034;27;20047;-75
2022/08/16 10:29:54;;;;;;;8.10;4.30;;;;;;;30.84;33.61;99357.34;5135212;27;20075;-74
2022/08/16 10:32:30;;;;;;;8.82;4.03;;;;;;;30.91;33.47;99353.38;5137168;27;20496;-74
2022/08/16 10:34:59;;;;;;;9.50;4.18;;;;;;;31.22;33.05;99345.69;5135136;27;20051;-75
2022/08/16 10:37:29;;;;;;;4.80;3.70;;;;;;;31.39;32.30;99351.22;5136693;27;20039;-75
2022/08/16 10:40:06;;;;;;;5.63;3.90;;;;;;;31.58;32.47;99349.91;5135345;27;20050;-73
2022/08/16 10:42:55;;;;;;;5.53;4.07;;;;;;;31.54;31.10;99365.25;5136702;27;20490;-73
2022/08/16 10:45:25;;;;;;;5.47;3.72;;;;;;;31.58;31.33;99358.16;5136681;27;20053;-75
2022/08/16 10:47:55;;;;;;;6.90;4.55;;;;;;;31.66;31.30;99356.91;5135272;27;20052;-74
2022/08/16 10:50:34;;;;;;;5.85;4.00;;;;;;;31.72;30.49;99350.38;5136923;27;20381;-73
2022/08/16 10:53:05;;;;;;;5.78;3.97;;;;;;;31.86;30.91;99340.72;5136182;27;20064;-74
2022/08/16 10:55:36;;;;;;;6.15;3.97;;;;;;;32.00;30.52;99341.19;5136742;27;20043;-73
2022/08/16 10:58:14;;;;;;;5.57;3.60;;;;;;;31.89;30.00;99335.53;5133299;27;20051;-77
2022/08/16 11:00:48;;;;;;;5.40;3.90;;;;;;;32.03;30.31;99335.16;5131965;27;20112;-75
2022/08/16 11:03:27;;;;;;;8.10;3.65;;;;;;;32.02;29.92;99333.47;5131758;27;20101;-74
2022/08/16 11:06:13;;;;;;;5.57;3.63;;;;;;;32.17;30.65;99336.47;5126135;27;20062;-74
2022/08/16 11:08:41;;;;;;;6.28;3.85;;;;;;;32.30;30.35;99330.59;5123423;27;20046;-74
2022/08/16 11:11:14;;;;;;;4.95;3.60;;;;;;;32.58;29.28;99337.00;5114765;28;20062;-74
2022/08/16 11:13:48;;;;;;;5.47;3.63;;;;;;;32.55;29.06;99338.38;5115869;28;20174;-74
2022/08/16 11:16:28;;;;;;;7.07;3.72;;;;;;;32.62;28.71;99335.38;5115797;28;20036;-73
2022/08/16 11:19:17;;;;;;;5.50;3.83;;;;;;;33.03;28.91;99331.19;5116515;27;20046;-74
2022/08/16 11:21:46;;;;;;;6.22;3.80;;;;;;;33.09;28.27;99332.06;5125357;27;20073;-73
2022/08/16 11:24:38;;;;;;;5.97;3.80;;;;;;;33.20;27.92;99325.53;5115554;28;20473;-71
2022/08/16 11:27:14;;;;;;;6.47;3.70;;;;;;;33.04;28.01;99321.81;5115801;28;20452;-72
2022/08/16 11:29:49;;;;;;;6.20;4.00;;;;;;;32.93;28.38;99329.16;5148783;27;20081;-72
2022/08/16 11:32:21;;;;;;;5.05;3.58;;;;;;;32.91;28.48;99319.44;5148583;27;20059;-71
2022/08/16 11:34:57;;;;;;;7.82;4.47;;;;;;;32.82;29.03;99326.53;5127788;27;20092;-73
2022/08/16 11:37:46;;;;;;;5.85;3.85;;;;;;;32.74;28.51;99331.41;5119509;27;20051;-72
2022/08/16 11:40:38;;;;;;;6.47;3.90;;;;;;;32.57;30.19;99340.88;5147987;27;20047;-72
2022/08/16 11:43:11;;;;;;;7.80;3.92;;;;;;;32.36;31.05;99345.31;5115450;28;20547;-72
2022/08/16 11:45:46;;;;;;;6.53;3.95;;;;;;;32.37;31.31;99346.97;5113801;28;20436;-73
2022/08/16 11:48:23;;;;;;;7.78;3.67;;;;;;;32.08;31.57;99340.75;5152268;27;20115;-73
2022/08/16 11:50:53;;;;;;;6.13;3.90;;;;;;;32.08;32.43;99349.03;5123876;27;20469;-73
2022/08/16 11:53:23;;;;;;;7.82;4.63;;;;;;;31.86;32.17;99363.63;5131480;27;20071;-73
2022/08/16 11:55:52;;;;;;;9.93;4.65;;;;;;;31.24;33.60;99360.06;5125832;27;20066;-74
2022/08/16 11:58:23;;;;;;;8.30;4.20;;;;;;;30.90;34.48;99370.16;5124286;27;20075;-75
2022/08/16 12:00:53;;;;;;;8.48;5.20;;;;;;;31.00;34.41;99362.06;5115097;28;20063;-74
2022/08/16 12:03:25;;;;;;;8.60;4.32;;;;;;;31.12;34.13;99367.53;5114216;27;20428;-76
2022/08/16 12:06:08;;;;;;;6.95;4.35;;;;;;;31.14;33.15;99359.84;5125618;27;20096;-75
2022/08/16 12:08:54;;;;;;;10.95;5.45;;;;;;;31.10;32.74;99364.19;5134838;27;20122;-74
2022/08/16 12:11:23;;;;;;;7.80;4.80;;;;;;;31.06;32.18;99363.81;5167560;27;20055;-75